Weather at Lake Geneva Aire Estates Airport

Public forecast

Using degrees Fahrenheit for public forecast. Weather courtesy of forecast.io.

Closest aviation weather report (METAR) to Lake Geneva Aire Estates Airport

Closest report is Burlington Municipal Airport, 7.6 nm (14.1 km) NNE. Retrieved 2021/06/25 03:15 UTC (28 minutes ago):

KBUU 250315Z AUTO 18003KT 10SM 20/19 A2995 RMK AO2 T02010192 PWINO

Closest aviation forecast (TAF) to Lake Geneva Aire Estates Airport

Closest forecast is Kenosha Regional Airport, 19.5 nm (36.1 km) E. Retrieved 2021-06-25 00:46 UTC (3 hours ago):

TAF KENW 242344Z 2500/2524 19012G21KT P6SM OVC009 FM250500 19007KT 6SM -SHRA BR VCTS OVC009CB FM250900 18006KT 4SM -SHRA BR VCTS OVC005CB FM251600 26007KT P6SM OVC006 FM251900 25007KT P6SM OVC015